sensor_id;sensor_type;location;lat;lon;timestamp;P1;durP1;ratioP1;P2;durP2;ratioP2
81036;SDS011;70521;47.468;19.306;2024-03-02T00:02:29;28.52;;;25.60;;
81036;SDS011;70521;47.468;19.306;2024-03-02T00:05:30;27.90;;;25.48;;
81036;SDS011;70521;47.468;19.306;2024-03-02T00:08:31;26.88;;;24.10;;
81036;SDS011;70521;47.468;19.306;2024-03-02T00:11:34;27.05;;;22.63;;
81036;SDS011;70521;47.468;19.306;2024-03-02T00:14:36;23.52;;;20.85;;
81036;SDS011;70521;47.468;19.306;2024-03-02T00:17:38;24.42;;;22.00;;
81036;SDS011;70521;47.468;19.306;2024-03-02T00:20:39;26.10;;;23.58;;
81036;SDS011;70521;47.468;19.306;2024-03-02T00:23:41;26.38;;;23.67;;
81036;SDS011;70521;47.468;19.306;2024-03-02T00:26:44;29.90;;;27.15;;
81036;SDS011;70521;47.468;19.306;2024-03-02T00:29:44;26.20;;;23.67;;
81036;SDS011;70521;47.468;19.306;2024-03-02T00:32:46;24.40;;;21.80;;
81036;SDS011;70521;47.468;19.306;2024-03-02T00:35:47;24.73;;;22.33;;
81036;SDS011;70521;47.468;19.306;2024-03-02T00:38:49;24.05;;;21.83;;
81036;SDS011;70521;47.468;19.306;2024-03-02T00:41:50;26.42;;;23.92;;
81036;SDS011;70521;47.468;19.306;2024-03-02T00:44:51;25.95;;;23.35;;
81036;SDS011;70521;47.468;19.306;2024-03-02T00:47:52;26.40;;;23.30;;
81036;SDS011;70521;47.468;19.306;2024-03-02T00:50:54;26.08;;;23.38;;
81036;SDS011;70521;47.468;19.306;2024-03-02T00:53:55;23.35;;;20.83;;
81036;SDS011;70521;47.468;19.306;2024-03-02T00:56:57;26.02;;;23.55;;
81036;SDS011;70521;47.468;19.306;2024-03-02T00:59:58;27.13;;;24.83;;
81036;SDS011;70521;47.468;19.306;2024-03-02T01:02:59;23.90;;;21.40;;
81036;SDS011;70521;47.468;19.306;2024-03-02T01:06:00;30.98;;;28.15;;
81036;SDS011;70521;47.468;19.306;2024-03-02T01:09:02;23.38;;;21.35;;
81036;SDS011;70521;47.468;19.306;2024-03-02T01:12:06;24.98;;;22.60;;
81036;SDS011;70521;47.468;19.306;2024-03-02T01:15:07;23.23;;;19.70;;
81036;SDS011;70521;47.468;19.306;2024-03-02T01:18:09;25.35;;;22.73;;
81036;SDS011;70521;47.468;19.306;2024-03-02T01:21:10;25.00;;;22.63;;
81036;SDS011;70521;47.468;19.306;2024-03-02T01:24:11;25.60;;;23.15;;
81036;SDS011;70521;47.468;19.306;2024-03-02T01:27:12;23.00;;;20.85;;
81036;SDS011;70521;47.468;19.306;2024-03-02T01:30:13;22.50;;;20.10;;
81036;SDS011;70521;47.468;19.306;2024-03-02T01:33:14;26.73;;;24.25;;
81036;SDS011;70521;47.468;19.306;2024-03-02T01:36:15;27.27;;;25.02;;
81036;SDS011;70521;47.468;19.306;2024-03-02T01:39:16;23.65;;;21.17;;
81036;SDS011;70521;47.468;19.306;2024-03-02T01:42:16;25.05;;;21.27;;
81036;SDS011;70521;47.468;19.306;2024-03-02T01:45:17;22.02;;;19.77;;
81036;SDS011;70521;47.468;19.306;2024-03-02T01:48:18;25.55;;;22.88;;
81036;SDS011;70521;47.468;19.306;2024-03-02T01:51:20;27.65;;;24.90;;
81036;SDS011;70521;47.468;19.306;2024-03-02T01:54:20;24.60;;;22.13;;
81036;SDS011;70521;47.468;19.306;2024-03-02T01:57:21;25.23;;;22.60;;
81036;SDS011;70521;47.468;19.306;2024-03-02T02:00:22;23.25;;;20.83;;
81036;SDS011;70521;47.468;19.306;2024-03-02T02:03:25;25.50;;;23.27;;
81036;SDS011;70521;47.468;19.306;2024-03-02T02:06:26;28.40;;;25.48;;
81036;SDS011;70521;47.468;19.306;2024-03-02T02:09:27;22.45;;;20.13;;
81036;SDS011;70521;47.468;19.306;2024-03-02T02:12:28;21.55;;;18.65;;
81036;SDS011;70521;47.468;19.306;2024-03-02T02:15:29;26.52;;;23.83;;
81036;SDS011;70521;47.468;19.306;2024-03-02T02:18:31;22.55;;;20.10;;
81036;SDS011;70521;47.468;19.306;2024-03-02T02:21:32;28.75;;;25.83;;
81036;SDS011;70521;47.468;19.306;2024-03-02T02:24:33;29.13;;;26.38;;
81036;SDS011;70521;47.468;19.306;2024-03-02T02:27:33;29.63;;;26.75;;
81036;SDS011;70521;47.468;19.306;2024-03-02T02:30:34;25.95;;;23.42;;
81036;SDS011;70521;47.468;19.306;2024-03-02T02:33:38;25.90;;;23.05;;
81036;SDS011;70521;47.468;19.306;2024-03-02T02:36:39;21.85;;;19.58;;
81036;SDS011;70521;47.468;19.306;2024-03-02T02:39:41;26.90;;;24.25;;
81036;SDS011;70521;47.468;19.306;2024-03-02T02:42:42;24.50;;;22.15;;
81036;SDS011;70521;47.468;19.306;2024-03-02T02:45:43;26.98;;;24.15;;
81036;SDS011;70521;47.468;19.306;2024-03-02T02:48:44;27.73;;;24.88;;
81036;SDS011;70521;47.468;19.306;2024-03-02T02:51:45;24.52;;;22.20;;
81036;SDS011;70521;47.468;19.306;2024-03-02T02:54:46;33.78;;;31.17;;
81036;SDS011;70521;47.468;19.306;2024-03-02T02:57:47;27.23;;;24.55;;
81036;SDS011;70521;47.468;19.306;2024-03-02T03:00:48;27.20;;;24.27;;
81036;SDS011;70521;47.468;19.306;2024-03-02T03:03:49;23.08;;;20.45;;
81036;SDS011;70521;47.468;19.306;2024-03-02T03:06:50;26.13;;;23.33;;
81036;SDS011;70521;47.468;19.306;2024-03-02T03:09:51;23.27;;;20.63;;
81036;SDS011;70521;47.468;19.306;2024-03-02T03:12:52;25.70;;;20.52;;
81036;SDS011;70521;47.468;19.306;2024-03-02T03:15:53;25.02;;;22.38;;
81036;SDS011;70521;47.468;19.306;2024-03-02T03:18:54;25.60;;;22.63;;
81036;SDS011;70521;47.468;19.306;2024-03-02T03:21:54;25.92;;;23.33;;
81036;SDS011;70521;47.468;19.306;2024-03-02T03:24:55;26.98;;;24.42;;
81036;SDS011;70521;47.468;19.306;2024-03-02T03:27:56;26.45;;;23.83;;
81036;SDS011;70521;47.468;19.306;2024-03-02T03:30:58;24.40;;;20.60;;
81036;SDS011;70521;47.468;19.306;2024-03-02T03:33:58;27.95;;;25.50;;
81036;SDS011;70521;47.468;19.306;2024-03-02T03:36:59;22.52;;;20.23;;
81036;SDS011;70521;47.468;19.306;2024-03-02T03:40:01;23.38;;;20.88;;
81036;SDS011;70521;47.468;19.306;2024-03-02T03:43:02;27.50;;;24.75;;
81036;SDS011;70521;47.468;19.306;2024-03-02T03:46:03;25.98;;;23.30;;
81036;SDS011;70521;47.468;19.306;2024-03-02T03:49:04;28.38;;;25.13;;
81036;SDS011;70521;47.468;19.306;2024-03-02T03:52:05;27.08;;;24.23;;
81036;SDS011;70521;47.468;19.306;2024-03-02T03:55:06;27.25;;;20.55;;
81036;SDS011;70521;47.468;19.306;2024-03-02T03:58:07;28.25;;;25.33;;
81036;SDS011;70521;47.468;19.306;2024-03-02T04:01:08;25.98;;;23.35;;
81036;SDS011;70521;47.468;19.306;2024-03-02T04:04:10;29.88;;;26.90;;
81036;SDS011;70521;47.468;19.306;2024-03-02T04:07:11;28.42;;;25.73;;
81036;SDS011;70521;47.468;19.306;2024-03-02T04:10:11;31.40;;;28.50;;
81036;SDS011;70521;47.468;19.306;2024-03-02T04:13:13;29.27;;;25.52;;
81036;SDS011;70521;47.468;19.306;2024-03-02T04:16:14;29.88;;;25.95;;
81036;SDS011;70521;47.468;19.306;2024-03-02T04:19:15;28.45;;;25.35;;
81036;SDS011;70521;47.468;19.306;2024-03-02T04:22:16;27.25;;;24.60;;
81036;SDS011;70521;47.468;19.306;2024-03-02T04:25:17;31.63;;;28.25;;
81036;SDS011;70521;47.468;19.306;2024-03-02T04:28:18;30.35;;;26.92;;
81036;SDS011;70521;47.468;19.306;2024-03-02T04:31:18;25.55;;;23.05;;
81036;SDS011;70521;47.468;19.306;2024-03-02T04:34:19;30.58;;;27.73;;
81036;SDS011;70521;47.468;19.306;2024-03-02T04:37:20;28.50;;;25.42;;
81036;SDS011;70521;47.468;19.306;2024-03-02T04:40:21;30.50;;;27.48;;
81036;SDS011;70521;47.468;19.306;2024-03-02T04:43:22;26.92;;;24.13;;
81036;SDS011;70521;47.468;19.306;2024-03-02T04:46:23;28.23;;;25.33;;
81036;SDS011;70521;47.468;19.306;2024-03-02T04:49:25;27.17;;;23.27;;
81036;SDS011;70521;47.468;19.306;2024-03-02T04:52:26;34.00;;;31.27;;
81036;SDS011;70521;47.468;19.306;2024-03-02T04:55:27;27.33;;;24.40;;
81036;SDS011;70521;47.468;19.306;2024-03-02T04:58:28;25.85;;;23.05;;
81036;SDS011;70521;47.468;19.306;2024-03-02T05:01:28;27.27;;;24.17;;
81036;SDS011;70521;47.468;19.306;2024-03-02T05:04:29;26.38;;;23.60;;
81036;SDS011;70521;47.468;19.306;2024-03-02T05:07:31;30.05;;;26.95;;
81036;SDS011;70521;47.468;19.306;2024-03-02T05:10:32;28.15;;;25.33;;
81036;SDS011;70521;47.468;19.306;2024-03-02T05:13:33;27.65;;;24.77;;
81036;SDS011;70521;47.468;19.306;2024-03-02T05:16:34;28.73;;;26.00;;
81036;SDS011;70521;47.468;19.306;2024-03-02T05:19:35;28.85;;;26.10;;
81036;SDS011;70521;47.468;19.306;2024-03-02T05:22:36;32.35;;;29.27;;
81036;SDS011;70521;47.468;19.306;2024-03-02T05:25:37;25.92;;;23.23;;
81036;SDS011;70521;47.468;19.306;2024-03-02T05:28:38;28.80;;;26.10;;
81036;SDS011;70521;47.468;19.306;2024-03-02T05:31:39;32.28;;;27.98;;
81036;SDS011;70521;47.468;19.306;2024-03-02T05:34:40;31.88;;;29.20;;
81036;SDS011;70521;47.468;19.306;2024-03-02T05:37:41;27.05;;;24.33;;
81036;SDS011;70521;47.468;19.306;2024-03-02T05:40:42;27.13;;;24.55;;
81036;SDS011;70521;47.468;19.306;2024-03-02T05:43:43;24.95;;;22.15;;
81036;SDS011;70521;47.468;19.306;2024-03-02T05:46:44;30.25;;;26.70;;
81036;SDS011;70521;47.468;19.306;2024-03-02T05:49:45;29.98;;;27.13;;
81036;SDS011;70521;47.468;19.306;2024-03-02T05:52:46;29.02;;;26.10;;
81036;SDS011;70521;47.468;19.306;2024-03-02T05:55:47;25.88;;;22.42;;
81036;SDS011;70521;47.468;19.306;2024-03-02T05:58:54;28.60;;;25.98;;
81036;SDS011;70521;47.468;19.306;2024-03-02T06:02:13;28.90;;;25.73;;
81036;SDS011;70521;47.468;19.306;2024-03-02T06:05:14;28.92;;;25.63;;
81036;SDS011;70521;47.468;19.306;2024-03-02T06:08:16;26.83;;;24.02;;
81036;SDS011;70521;47.468;19.306;2024-03-02T06:11:17;30.25;;;27.48;;
81036;SDS011;70521;47.468;19.306;2024-03-02T06:14:19;27.92;;;24.95;;
81036;SDS011;70521;47.468;19.306;2024-03-02T06:17:21;25.23;;;22.33;;
81036;SDS011;70521;47.468;19.306;2024-03-02T06:20:21;28.48;;;25.45;;
81036;SDS011;70521;47.468;19.306;2024-03-02T06:23:22;29.60;;;26.45;;
81036;SDS011;70521;47.468;19.306;2024-03-02T06:26:23;29.55;;;26.70;;
81036;SDS011;70521;47.468;19.306;2024-03-02T06:29:24;27.55;;;24.75;;
81036;SDS011;70521;47.468;19.306;2024-03-02T06:32:25;31.17;;;28.30;;
81036;SDS011;70521;47.468;19.306;2024-03-02T06:35:26;31.02;;;27.98;;
81036;SDS011;70521;47.468;19.306;2024-03-02T06:38:27;30.52;;;27.63;;
81036;SDS011;70521;47.468;19.306;2024-03-02T06:41:28;28.40;;;25.40;;
81036;SDS011;70521;47.468;19.306;2024-03-02T06:44:29;29.95;;;26.63;;
81036;SDS011;70521;47.468;19.306;2024-03-02T06:47:30;28.23;;;24.95;;
81036;SDS011;70521;47.468;19.306;2024-03-02T06:50:31;35.72;;;32.35;;
81036;SDS011;70521;47.468;19.306;2024-03-02T06:53:32;32.10;;;29.00;;
81036;SDS011;70521;47.468;19.306;2024-03-02T06:56:34;26.70;;;21.23;;
81036;SDS011;70521;47.468;19.306;2024-03-02T06:59:35;26.63;;;23.85;;
81036;SDS011;70521;47.468;19.306;2024-03-02T07:02:36;26.42;;;23.17;;
81036;SDS011;70521;47.468;19.306;2024-03-02T07:05:37;31.17;;;27.90;;
81036;SDS011;70521;47.468;19.306;2024-03-02T07:08:38;27.33;;;24.42;;
81036;SDS011;70521;47.468;19.306;2024-03-02T07:11:39;28.25;;;24.65;;
81036;SDS011;70521;47.468;19.306;2024-03-02T07:14:40;27.92;;;25.02;;
81036;SDS011;70521;47.468;19.306;2024-03-02T07:18:10;27.50;;;24.52;;
81036;SDS011;70521;47.468;19.306;2024-03-02T07:21:10;24.30;;;21.73;;
81036;SDS011;70521;47.468;19.306;2024-03-02T07:24:11;27.00;;;24.17;;
81036;SDS011;70521;47.468;19.306;2024-03-02T07:27:14;24.25;;;21.75;;
81036;SDS011;70521;47.468;19.306;2024-03-02T07:30:15;28.05;;;25.15;;
81036;SDS011;70521;47.468;19.306;2024-03-02T07:33:18;29.23;;;26.27;;
81036;SDS011;70521;47.468;19.306;2024-03-02T07:36:22;30.73;;;27.75;;
81036;SDS011;70521;47.468;19.306;2024-03-02T07:39:23;34.63;;;29.40;;
81036;SDS011;70521;47.468;19.306;2024-03-02T07:42:24;30.33;;;26.92;;
81036;SDS011;70521;47.468;19.306;2024-03-02T07:45:25;30.80;;;25.42;;
81036;SDS011;70521;47.468;19.306;2024-03-02T07:48:26;35.10;;;31.85;;
81036;SDS011;70521;47.468;19.306;2024-03-02T07:51:27;26.63;;;23.63;;
81036;SDS011;70521;47.468;19.306;2024-03-02T07:54:28;29.48;;;26.05;;
81036;SDS011;70521;47.468;19.306;2024-03-02T07:57:29;30.40;;;27.17;;
81036;SDS011;70521;47.468;19.306;2024-03-02T08:00:30;30.25;;;27.38;;
81036;SDS011;70521;47.468;19.306;2024-03-02T08:03:31;28.42;;;25.65;;
81036;SDS011;70521;47.468;19.306;2024-03-02T08:06:33;32.17;;;29.35;;
81036;SDS011;70521;47.468;19.306;2024-03-02T08:09:33;26.63;;;24.35;;
81036;SDS011;70521;47.468;19.306;2024-03-02T08:12:34;25.80;;;23.05;;
81036;SDS011;70521;47.468;19.306;2024-03-02T08:15:35;26.48;;;23.75;;
81036;SDS011;70521;47.468;19.306;2024-03-02T08:18:36;25.02;;;22.58;;
81036;SDS011;70521;47.468;19.306;2024-03-02T08:21:37;28.52;;;25.55;;
81036;SDS011;70521;47.468;19.306;2024-03-02T08:24:38;29.58;;;26.52;;
81036;SDS011;70521;47.468;19.306;2024-03-02T08:27:39;32.53;;;29.30;;
81036;SDS011;70521;47.468;19.306;2024-03-02T08:30:40;31.63;;;28.75;;
81036;SDS011;70521;47.468;19.306;2024-03-02T08:33:41;27.70;;;25.20;;
81036;SDS011;70521;47.468;19.306;2024-03-02T08:36:42;26.58;;;22.67;;
81036;SDS011;70521;47.468;19.306;2024-03-02T08:39:44;22.10;;;19.88;;
81036;SDS011;70521;47.468;19.306;2024-03-02T08:42:45;19.75;;;17.67;;
81036;SDS011;70521;47.468;19.306;2024-03-02T08:45:46;25.38;;;22.83;;
81036;SDS011;70521;47.468;19.306;2024-03-02T08:48:48;26.23;;;22.30;;
81036;SDS011;70521;47.468;19.306;2024-03-02T08:51:48;23.38;;;21.15;;
81036;SDS011;70521;47.468;19.306;2024-03-02T08:54:55;24.25;;;21.73;;
81036;SDS011;70521;47.468;19.306;2024-03-02T08:57:56;23.60;;;21.38;;
81036;SDS011;70521;47.468;19.306;2024-03-02T09:00:57;22.92;;;20.25;;
81036;SDS011;70521;47.468;19.306;2024-03-02T09:03:58;22.38;;;20.33;;
81036;SDS011;70521;47.468;19.306;2024-03-02T09:06:59;20.98;;;19.05;;
81036;SDS011;70521;47.468;19.306;2024-03-02T09:10:00;19.48;;;17.58;;
81036;SDS011;70521;47.468;19.306;2024-03-02T09:13:00;21.35;;;19.30;;
81036;SDS011;70521;47.468;19.306;2024-03-02T09:16:02;19.30;;;17.60;;
81036;SDS011;70521;47.468;19.306;2024-03-02T09:19:03;21.60;;;19.70;;
81036;SDS011;70521;47.468;19.306;2024-03-02T09:22:04;17.52;;;15.70;;
81036;SDS011;70521;47.468;19.306;2024-03-02T09:25:06;21.92;;;20.02;;
81036;SDS011;70521;47.468;19.306;2024-03-02T09:28:09;20.52;;;18.45;;
81036;SDS011;70521;47.468;19.306;2024-03-02T09:31:10;18.98;;;17.08;;
81036;SDS011;70521;47.468;19.306;2024-03-02T09:34:12;21.83;;;19.83;;
81036;SDS011;70521;47.468;19.306;2024-03-02T09:37:15;21.13;;;19.30;;
81036;SDS011;70521;47.468;19.306;2024-03-02T09:40:16;21.90;;;20.15;;
81036;SDS011;70521;47.468;19.306;2024-03-02T09:43:17;18.42;;;16.80;;
81036;SDS011;70521;47.468;19.306;2024-03-02T09:46:18;19.77;;;17.98;;
81036;SDS011;70521;47.468;19.306;2024-03-02T09:49:20;19.75;;;17.88;;
81036;SDS011;70521;47.468;19.306;2024-03-02T09:52:22;21.38;;;18.15;;
81036;SDS011;70521;47.468;19.306;2024-03-02T09:55:23;19.58;;;17.92;;
81036;SDS011;70521;47.468;19.306;2024-03-02T09:58:24;13.43;;;12.30;;
81036;SDS011;70521;47.468;19.306;2024-03-02T10:01:24;16.02;;;14.70;;
81036;SDS011;70521;47.468;19.306;2024-03-02T10:04:26;16.40;;;15.02;;
81036;SDS011;70521;47.468;19.306;2024-03-02T10:07:27;15.15;;;13.93;;
81036;SDS011;70521;47.468;19.306;2024-03-02T10:10:38;18.05;;;16.42;;
81036;SDS011;70521;47.468;19.306;2024-03-02T10:13:42;16.80;;;15.50;;
81036;SDS011;70521;47.468;19.306;2024-03-02T10:16:43;17.67;;;16.30;;
81036;SDS011;70521;47.468;19.306;2024-03-02T10:19:44;15.55;;;14.30;;
81036;SDS011;70521;47.468;19.306;2024-03-02T10:22:45;17.92;;;16.48;;
81036;SDS011;70521;47.468;19.306;2024-03-02T10:25:47;20.42;;;18.55;;
81036;SDS011;70521;47.468;19.306;2024-03-02T10:28:47;18.80;;;17.17;;
81036;SDS011;70521;47.468;19.306;2024-03-02T10:31:48;21.75;;;19.95;;
81036;SDS011;70521;47.468;19.306;2024-03-02T10:34:49;23.98;;;21.85;;
81036;SDS011;70521;47.468;19.306;2024-03-02T10:37:51;20.25;;;18.48;;
81036;SDS011;70521;47.468;19.306;2024-03-02T10:40:53;18.83;;;17.05;;
81036;SDS011;70521;47.468;19.306;2024-03-02T10:43:56;17.55;;;15.98;;
81036;SDS011;70521;47.468;19.306;2024-03-02T10:47:00;16.58;;;15.15;;
81036;SDS011;70521;47.468;19.306;2024-03-02T10:50:04;19.35;;;17.45;;
81036;SDS011;70521;47.468;19.306;2024-03-02T10:53:08;17.88;;;16.35;;
81036;SDS011;70521;47.468;19.306;2024-03-02T10:56:09;21.50;;;19.90;;
81036;SDS011;70521;47.468;19.306;2024-03-02T10:59:20;21.45;;;19.55;;
81036;SDS011;70521;47.468;19.306;2024-03-02T11:02:23;17.05;;;15.48;;
81036;SDS011;70521;47.468;19.306;2024-03-02T11:05:28;17.17;;;15.70;;
81036;SDS011;70521;47.468;19.306;2024-03-02T11:08:29;16.42;;;15.02;;
81036;SDS011;70521;47.468;19.306;2024-03-02T11:11:30;14.27;;;12.85;;
81036;SDS011;70521;47.468;19.306;2024-03-02T11:14:32;16.02;;;14.70;;
81036;SDS011;70521;47.468;19.306;2024-03-02T11:17:34;17.30;;;15.77;;
81036;SDS011;70521;47.468;19.306;2024-03-02T11:20:36;19.42;;;17.63;;
81036;SDS011;70521;47.468;19.306;2024-03-02T11:23:39;19.35;;;17.85;;
81036;SDS011;70521;47.468;19.306;2024-03-02T11:26:40;17.67;;;16.27;;
81036;SDS011;70521;47.468;19.306;2024-03-02T11:32:42;19.45;;;17.92;;
81036;SDS011;70521;47.468;19.306;2024-03-02T11:35:44;21.20;;;19.20;;
81036;SDS011;70521;47.468;19.306;2024-03-02T11:38:48;21.63;;;19.73;;
81036;SDS011;70521;47.468;19.306;2024-03-02T11:41:56;29.08;;;26.58;;
81036;SDS011;70521;47.468;19.306;2024-03-02T11:44:58;25.40;;;23.40;;
81036;SDS011;70521;47.468;19.306;2024-03-02T11:48:00;24.65;;;22.45;;
81036;SDS011;70521;47.468;19.306;2024-03-02T11:51:01;20.58;;;18.73;;
81036;SDS011;70521;47.468;19.306;2024-03-02T11:54:01;25.85;;;23.77;;
81036;SDS011;70521;47.468;19.306;2024-03-02T11:57:03;22.50;;;20.52;;
81036;SDS011;70521;47.468;19.306;2024-03-02T12:00:04;22.45;;;20.00;;
81036;SDS011;70521;47.468;19.306;2024-03-02T12:03:07;20.73;;;19.13;;
81036;SDS011;70521;47.468;19.306;2024-03-02T12:06:09;17.33;;;15.98;;
81036;SDS011;70521;47.468;19.306;2024-03-02T12:09:10;14.60;;;13.30;;
81036;SDS011;70521;47.468;19.306;2024-03-02T12:12:12;16.17;;;14.77;;
81036;SDS011;70521;47.468;19.306;2024-03-02T12:15:21;17.25;;;15.93;;
81036;SDS011;70521;47.468;19.306;2024-03-02T12:18:23;16.17;;;14.88;;
81036;SDS011;70521;47.468;19.306;2024-03-02T12:21:24;15.93;;;14.52;;
81036;SDS011;70521;47.468;19.306;2024-03-02T12:24:28;16.42;;;14.93;;
81036;SDS011;70521;47.468;19.306;2024-03-02T12:27:30;18.10;;;16.52;;
81036;SDS011;70521;47.468;19.306;2024-03-02T12:30:32;17.02;;;15.63;;
81036;SDS011;70521;47.468;19.306;2024-03-02T12:33:35;19.63;;;18.02;;
81036;SDS011;70521;47.468;19.306;2024-03-02T12:36:37;20.20;;;18.55;;
81036;SDS011;70521;47.468;19.306;2024-03-02T12:39:38;20.90;;;19.13;;
81036;SDS011;70521;47.468;19.306;2024-03-02T12:42:40;17.98;;;15.20;;
81036;SDS011;70521;47.468;19.306;2024-03-02T12:45:42;18.23;;;16.60;;
81036;SDS011;70521;47.468;19.306;2024-03-02T12:48:43;18.10;;;16.67;;
81036;SDS011;70521;47.468;19.306;2024-03-02T12:51:44;15.85;;;14.07;;
81036;SDS011;70521;47.468;19.306;2024-03-02T12:54:48;17.33;;;15.82;;
81036;SDS011;70521;47.468;19.306;2024-03-02T12:57:49;18.63;;;17.08;;
81036;SDS011;70521;47.468;19.306;2024-03-02T13:01:06;19.45;;;17.77;;
81036;SDS011;70521;47.468;19.306;2024-03-02T13:04:09;16.88;;;15.43;;
81036;SDS011;70521;47.468;19.306;2024-03-02T13:07:10;19.33;;;17.50;;
81036;SDS011;70521;47.468;19.306;2024-03-02T13:10:12;14.95;;;13.38;;
81036;SDS011;70521;47.468;19.306;2024-03-02T13:13:13;18.15;;;16.38;;
81036;SDS011;70521;47.468;19.306;2024-03-02T13:16:15;15.13;;;13.98;;
81036;SDS011;70521;47.468;19.306;2024-03-02T13:19:17;20.98;;;19.13;;
81036;SDS011;70521;47.468;19.306;2024-03-02T13:22:19;22.67;;;20.60;;
81036;SDS011;70521;47.468;19.306;2024-03-02T13:25:20;20.20;;;18.13;;
81036;SDS011;70521;47.468;19.306;2024-03-02T13:28:22;20.77;;;18.95;;
81036;SDS011;70521;47.468;19.306;2024-03-02T13:31:23;27.25;;;25.05;;
81036;SDS011;70521;47.468;19.306;2024-03-02T13:34:24;19.38;;;17.45;;
81036;SDS011;70521;47.468;19.306;2024-03-02T13:37:25;18.88;;;16.95;;
81036;SDS011;70521;47.468;19.306;2024-03-02T13:40:26;20.35;;;18.55;;
81036;SDS011;70521;47.468;19.306;2024-03-02T13:43:28;19.15;;;17.63;;
81036;SDS011;70521;47.468;19.306;2024-03-02T13:46:32;17.67;;;16.02;;
81036;SDS011;70521;47.468;19.306;2024-03-02T13:49:33;17.00;;;15.35;;
81036;SDS011;70521;47.468;19.306;2024-03-02T13:52:36;16.50;;;14.77;;
81036;SDS011;70521;47.468;19.306;2024-03-02T13:55:37;19.25;;;17.50;;
81036;SDS011;70521;47.468;19.306;2024-03-02T13:58:39;15.32;;;13.98;;
81036;SDS011;70521;47.468;19.306;2024-03-02T14:01:40;16.10;;;14.52;;
81036;SDS011;70521;47.468;19.306;2024-03-02T14:04:41;23.02;;;18.27;;
81036;SDS011;70521;47.468;19.306;2024-03-02T14:07:42;17.08;;;15.68;;
81036;SDS011;70521;47.468;19.306;2024-03-02T14:10:44;25.60;;;23.38;;
81036;SDS011;70521;47.468;19.306;2024-03-02T14:13:45;28.35;;;25.45;;
81036;SDS011;70521;47.468;19.306;2024-03-02T14:16:54;22.88;;;20.48;;
81036;SDS011;70521;47.468;19.306;2024-03-02T14:19:56;27.65;;;23.08;;
81036;SDS011;70521;47.468;19.306;2024-03-02T14:22:59;26.42;;;23.92;;
81036;SDS011;70521;47.468;19.306;2024-03-02T14:26:00;26.05;;;22.30;;
81036;SDS011;70521;47.468;19.306;2024-03-02T14:29:01;32.30;;;28.90;;
81036;SDS011;70521;47.468;19.306;2024-03-02T14:32:03;27.92;;;25.00;;
81036;SDS011;70521;47.468;19.306;2024-03-02T14:35:04;25.98;;;23.17;;
81036;SDS011;70521;47.468;19.306;2024-03-02T14:38:05;27.75;;;22.33;;
81036;SDS011;70521;47.468;19.306;2024-03-02T14:41:06;28.80;;;22.15;;
81036;SDS011;70521;47.468;19.306;2024-03-02T14:44:07;29.38;;;26.45;;
81036;SDS011;70521;47.468;19.306;2024-03-02T14:47:08;26.92;;;20.73;;
81036;SDS011;70521;47.468;19.306;2024-03-02T14:50:09;25.55;;;23.08;;
81036;SDS011;70521;47.468;19.306;2024-03-02T14:53:10;27.75;;;24.88;;
81036;SDS011;70521;47.468;19.306;2024-03-02T14:56:11;24.55;;;21.88;;
81036;SDS011;70521;47.468;19.306;2024-03-02T14:59:14;25.88;;;21.58;;
81036;SDS011;70521;47.468;19.306;2024-03-02T15:02:15;28.02;;;24.48;;
81036;SDS011;70521;47.468;19.306;2024-03-02T15:05:15;23.10;;;20.65;;
81036;SDS011;70521;47.468;19.306;2024-03-02T15:08:17;29.75;;;24.42;;
81036;SDS011;70521;47.468;19.306;2024-03-02T15:11:18;27.70;;;25.00;;
81036;SDS011;70521;47.468;19.306;2024-03-02T15:14:18;29.00;;;26.02;;
81036;SDS011;70521;47.468;19.306;2024-03-02T15:17:19;24.05;;;21.42;;
81036;SDS011;70521;47.468;19.306;2024-03-02T15:20:20;27.27;;;24.45;;
81036;SDS011;70521;47.468;19.306;2024-03-02T15:23:24;23.77;;;21.60;;
81036;SDS011;70521;47.468;19.306;2024-03-02T15:26:25;24.90;;;22.48;;
81036;SDS011;70521;47.468;19.306;2024-03-02T15:29:26;23.33;;;20.80;;
81036;SDS011;70521;47.468;19.306;2024-03-02T15:32:30;24.20;;;21.65;;
81036;SDS011;70521;47.468;19.306;2024-03-02T15:35:31;25.88;;;23.38;;
81036;SDS011;70521;47.468;19.306;2024-03-02T15:38:32;25.08;;;22.38;;
81036;SDS011;70521;47.468;19.306;2024-03-02T15:41:33;24.08;;;21.63;;
81036;SDS011;70521;47.468;19.306;2024-03-02T15:44:34;28.20;;;25.67;;
81036;SDS011;70521;47.468;19.306;2024-03-02T15:47:35;29.70;;;26.98;;
81036;SDS011;70521;47.468;19.306;2024-03-02T15:50:36;27.15;;;24.35;;
81036;SDS011;70521;47.468;19.306;2024-03-02T15:53:38;28.63;;;26.10;;
81036;SDS011;70521;47.468;19.306;2024-03-02T15:56:39;22.95;;;20.70;;
81036;SDS011;70521;47.468;19.306;2024-03-02T15:59:40;19.38;;;17.45;;
81036;SDS011;70521;47.468;19.306;2024-03-02T16:02:41;19.67;;;17.88;;
81036;SDS011;70521;47.468;19.306;2024-03-02T16:05:42;20.15;;;18.25;;
81036;SDS011;70521;47.468;19.306;2024-03-02T16:08:43;18.40;;;16.85;;
81036;SDS011;70521;47.468;19.306;2024-03-02T16:11:45;20.88;;;18.70;;
81036;SDS011;70521;47.468;19.306;2024-03-02T16:14:46;20.70;;;18.85;;
81036;SDS011;70521;47.468;19.306;2024-03-02T16:17:47;22.05;;;19.85;;
81036;SDS011;70521;47.468;19.306;2024-03-02T16:20:47;21.65;;;19.58;;
81036;SDS011;70521;47.468;19.306;2024-03-02T16:23:48;19.52;;;17.75;;
81036;SDS011;70521;47.468;19.306;2024-03-02T16:26:49;23.52;;;21.25;;
81036;SDS011;70521;47.468;19.306;2024-03-02T16:29:50;24.55;;;22.05;;
81036;SDS011;70521;47.468;19.306;2024-03-02T16:32:51;22.58;;;20.58;;
81036;SDS011;70521;47.468;19.306;2024-03-02T16:35:52;21.50;;;19.63;;
81036;SDS011;70521;47.468;19.306;2024-03-02T16:38:53;20.60;;;18.67;;
81036;SDS011;70521;47.468;19.306;2024-03-02T16:41:54;17.98;;;16.20;;
81036;SDS011;70521;47.468;19.306;2024-03-02T16:44:55;16.55;;;14.98;;
81036;SDS011;70521;47.468;19.306;2024-03-02T16:47:58;14.73;;;13.27;;
81036;SDS011;70521;47.468;19.306;2024-03-02T16:51:00;14.50;;;13.07;;
81036;SDS011;70521;47.468;19.306;2024-03-02T16:54:01;17.30;;;15.73;;
81036;SDS011;70521;47.468;19.306;2024-03-02T16:57:03;14.88;;;13.68;;
81036;SDS011;70521;47.468;19.306;2024-03-02T17:00:06;15.65;;;14.38;;
81036;SDS011;70521;47.468;19.306;2024-03-02T17:03:08;15.30;;;14.13;;
81036;SDS011;70521;47.468;19.306;2024-03-02T17:06:09;14.93;;;13.65;;
81036;SDS011;70521;47.468;19.306;2024-03-02T17:09:11;15.18;;;13.88;;
81036;SDS011;70521;47.468;19.306;2024-03-02T17:12:11;17.45;;;15.90;;
81036;SDS011;70521;47.468;19.306;2024-03-02T17:15:12;17.98;;;16.42;;
81036;SDS011;70521;47.468;19.306;2024-03-02T17:18:14;15.05;;;13.95;;
81036;SDS011;70521;47.468;19.306;2024-03-02T17:21:15;17.83;;;16.52;;
81036;SDS011;70521;47.468;19.306;2024-03-02T17:24:16;15.07;;;13.68;;
81036;SDS011;70521;47.468;19.306;2024-03-02T17:27:17;15.25;;;13.85;;
81036;SDS011;70521;47.468;19.306;2024-03-02T17:30:19;17.67;;;16.15;;